createdAt,value
2023-05-01T00:01:16.584Z,8.13
2023-05-01T00:03:43.484Z,7.57
2023-05-01T00:06:10.313Z,8.60
2023-05-01T00:08:37.030Z,9.30
2023-05-01T00:11:04.643Z,6.32
2023-05-01T00:13:32.376Z,7.33
2023-05-01T00:15:59.177Z,8.60
2023-05-01T00:18:25.983Z,8.13
2023-05-01T00:20:52.598Z,9.75
2023-05-01T00:23:19.287Z,11.48
2023-05-01T00:25:45.954Z,12.07
2023-05-01T00:28:12.896Z,8.38
2023-05-01T00:30:39.507Z,10.10
2023-05-01T00:33:06.213Z,9.23
2023-05-01T00:35:32.932Z,10.65
2023-05-01T00:37:59.570Z,8.00
2023-05-01T00:40:26.171Z,7.80
2023-05-01T00:42:52.815Z,7.57
2023-05-01T00:45:19.705Z,9.07
2023-05-01T00:47:47.073Z,8.68
2023-05-01T00:50:14.229Z,7.40
2023-05-01T00:52:41.115Z,7.22
2023-05-01T00:55:08.451Z,10.07
2023-05-01T00:57:35.112Z,11.52
2023-05-01T01:00:01.771Z,8.57
2023-05-01T01:02:28.521Z,8.97
2023-05-01T01:04:55.452Z,6.30
2023-05-01T01:07:45.703Z,7.45
2023-05-01T01:10:35.496Z,8.65
2023-05-01T01:13:09.321Z,6.63
2023-05-01T01:15:44.303Z,8.10
2023-05-01T01:18:23.659Z,7.22
2023-05-01T01:20:58.775Z,7.70
2023-05-01T01:23:37.097Z,9.40
2023-05-01T01:26:13.904Z,7.57
2023-05-01T01:29:02.030Z,7.03
2023-05-01T01:31:53.820Z,8.80
2023-05-01T01:34:41.945Z,8.20
2023-05-01T01:37:17.446Z,8.10
2023-05-01T01:39:52.994Z,10.05
2023-05-01T01:42:25.392Z,12.73
2023-05-01T01:44:54.549Z,10.63
2023-05-01T01:47:24.616Z,6.30
2023-05-01T01:49:53.861Z,5.72
2023-05-01T01:52:24.004Z,9.00
2023-05-01T01:54:54.997Z,11.03
2023-05-01T01:57:23.836Z,7.75
2023-05-01T01:59:51.496Z,8.90
2023-05-01T02:02:20.651Z,8.05
2023-05-01T02:04:49.538Z,8.38
2023-05-01T02:07:17.610Z,8.03
2023-05-01T02:09:46.250Z,7.35
2023-05-01T02:12:15.763Z,7.68
2023-05-01T02:14:44.399Z,8.32
2023-05-01T02:17:11.732Z,7.85
2023-05-01T02:19:39.155Z,7.13
2023-05-01T02:22:07.389Z,8.60
2023-05-01T02:24:35.944Z,8.40
2023-05-01T02:27:15.612Z,9.52
2023-05-01T02:29:42.377Z,8.15
2023-05-01T02:32:09.179Z,10.87
2023-05-01T02:34:35.922Z,6.95
2023-05-01T02:37:08.082Z,8.73
2023-05-01T02:39:35.215Z,9.77
2023-05-01T02:42:03.412Z,8.80
2023-05-01T02:44:37.670Z,9.00
2023-05-01T02:47:07.195Z,6.57
2023-05-01T02:49:34.600Z,8.80
2023-05-01T02:52:02.835Z,6.60
2023-05-01T02:54:30.981Z,7.55
2023-05-01T02:56:57.631Z,8.03
2023-05-01T02:59:24.372Z,7.45
2023-05-01T03:01:51.508Z,8.13
2023-05-01T03:04:18.186Z,6.63
2023-05-01T03:06:45.095Z,8.13
2023-05-01T03:09:11.868Z,7.10
2023-05-01T03:11:38.529Z,7.13
2023-05-01T03:14:05.168Z,9.32
2023-05-01T03:16:32.052Z,8.55
2023-05-01T03:18:58.761Z,8.05
2023-05-01T03:21:25.443Z,7.60
2023-05-01T03:23:52.070Z,7.18
2023-05-01T03:26:18.650Z,8.98
2023-05-01T03:28:48.169Z,6.85
2023-05-01T03:31:14.794Z,6.57
2023-05-01T03:33:41.413Z,6.63
2023-05-01T03:36:08.181Z,5.57
2023-05-01T03:38:34.797Z,10.00
2023-05-01T03:41:01.456Z,8.15
2023-05-01T03:43:30.649Z,6.55
2023-05-01T03:45:57.619Z,6.03
2023-05-01T03:48:24.570Z,7.25
2023-05-01T03:50:54.211Z,7.65
2023-05-01T03:53:20.966Z,8.20
2023-05-01T03:55:47.656Z,14.70
2023-05-01T03:58:14.417Z,5.87
2023-05-01T04:00:41.006Z,7.53
2023-05-01T04:03:07.815Z,7.05
2023-05-01T04:05:34.689Z,7.70
2023-05-01T04:08:01.272Z,7.80
2023-05-01T04:10:27.945Z,5.07
2023-05-01T04:12:54.727Z,9.73
2023-05-01T04:15:21.356Z,6.57
2023-05-01T04:17:48.379Z,8.43
2023-05-01T04:20:15.305Z,5.32
2023-05-01T04:22:41.939Z,6.20
2023-05-01T04:25:09.069Z,8.20
2023-05-01T04:27:35.719Z,6.75
2023-05-01T04:30:02.415Z,7.20
2023-05-01T04:32:29.092Z,6.25
2023-05-01T04:34:55.925Z,8.33
2023-05-01T04:37:22.561Z,6.78
2023-05-01T04:39:49.237Z,8.40
2023-05-01T04:42:15.880Z,6.60
2023-05-01T04:44:42.502Z,8.00
2023-05-01T04:47:09.413Z,6.80
2023-05-01T04:49:36.189Z,7.53
2023-05-01T04:52:03.119Z,5.13
2023-05-01T04:54:29.743Z,8.70
2023-05-01T04:56:56.380Z,6.82
2023-05-01T04:59:22.992Z,9.60
2023-05-01T05:01:49.687Z,7.00
2023-05-01T05:04:16.425Z,6.68
2023-05-01T05:06:43.193Z,6.18
2023-05-01T05:09:09.808Z,7.82
2023-05-01T05:11:36.457Z,8.60
2023-05-01T05:14:03.100Z,7.65
2023-05-01T05:16:30.060Z,6.80
2023-05-01T05:18:56.747Z,6.20
2023-05-01T05:21:23.515Z,7.43
2023-05-01T05:23:50.281Z,9.07
2023-05-01T05:26:17.023Z,6.32
2023-05-01T05:28:43.732Z,6.85
2023-05-01T05:31:10.373Z,5.38
2023-05-01T05:33:37.148Z,6.97
2023-05-01T05:36:03.943Z,6.57
2023-05-01T05:38:30.628Z,6.03
2023-05-01T05:40:57.301Z,5.85
2023-05-01T05:43:26.025Z,6.13
2023-05-01T05:45:58.115Z,7.90
2023-05-01T05:48:25.283Z,7.20
2023-05-01T05:50:51.908Z,4.90
2023-05-01T05:53:23.584Z,7.63
2023-05-01T05:55:51.721Z,6.50
2023-05-01T05:58:19.588Z,5.75
2023-05-01T06:00:47.454Z,8.10
2023-05-01T06:03:14.823Z,6.45
2023-05-01T06:05:42.726Z,9.07
2023-05-01T06:08:09.724Z,8.60
2023-05-01T06:10:36.791Z,6.72
2023-05-01T06:13:14.004Z,5.50
2023-05-01T06:15:41.956Z,5.75
2023-05-01T06:18:08.955Z,6.65
2023-05-01T06:20:36.301Z,9.45
2023-05-01T06:23:02.951Z,6.65
2023-05-01T06:25:29.626Z,5.47
2023-05-01T06:27:56.324Z,5.07
2023-05-01T06:30:22.949Z,5.82
2023-05-01T06:32:49.743Z,13.43
2023-05-01T06:35:19.274Z,5.22
2023-05-01T06:37:46.139Z,5.90
2023-05-01T06:40:12.983Z,6.93
2023-05-01T06:42:40.403Z,7.57
2023-05-01T06:45:08.166Z,5.78
2023-05-01T06:47:34.976Z,7.10
2023-05-01T06:50:05.078Z,8.17
2023-05-01T06:52:32.738Z,7.07
2023-05-01T06:54:59.336Z,7.22
2023-05-01T06:57:26.037Z,11.45
2023-05-01T06:59:52.711Z,6.70
2023-05-01T07:02:19.601Z,8.17
2023-05-01T07:04:49.127Z,6.97
2023-05-01T07:07:15.756Z,6.05
2023-05-01T07:09:42.446Z,6.38
2023-05-01T07:12:09.296Z,6.15
2023-05-01T07:14:36.180Z,9.30
2023-05-01T07:17:04.858Z,6.80
2023-05-01T07:19:31.539Z,7.85
2023-05-01T07:21:58.198Z,8.25
2023-05-01T07:24:24.960Z,7.18
2023-05-01T07:26:51.648Z,9.00
2023-05-01T07:29:18.347Z,7.93
2023-05-01T07:31:46.487Z,6.63
2023-05-01T07:34:13.166Z,7.68
2023-05-01T07:36:39.887Z,5.05
2023-05-01T07:39:06.714Z,9.57
2023-05-01T07:41:33.392Z,8.90
2023-05-01T07:44:00.110Z,5.10
2023-05-01T07:46:26.929Z,6.55
2023-05-01T07:48:53.615Z,8.50
2023-05-01T07:51:20.301Z,7.33
2023-05-01T07:53:47.078Z,5.60
2023-05-01T07:56:13.771Z,8.23
2023-05-01T07:58:40.461Z,6.10
2023-05-01T08:01:07.203Z,5.97
2023-05-01T08:03:34.066Z,8.03
2023-05-01T08:06:01.021Z,6.78
2023-05-01T08:08:27.702Z,8.27
2023-05-01T08:10:54.427Z,8.77
2023-05-01T08:13:21.078Z,6.10
2023-05-01T08:15:48.155Z,6.03
2023-05-01T08:18:15.295Z,6.30
2023-05-01T08:20:41.872Z,6.20
2023-05-01T08:23:08.513Z,8.05
2023-05-01T08:25:35.202Z,6.22
2023-05-01T08:28:02.014Z,15.70
2023-05-01T08:30:28.750Z,6.75
2023-05-01T08:32:55.387Z,5.75
2023-05-01T08:35:22.022Z,7.53
2023-05-01T08:37:48.748Z,6.53
2023-05-01T08:40:15.579Z,5.90
2023-05-01T08:42:42.790Z,7.88
2023-05-01T08:45:10.589Z,5.78
2023-05-01T08:47:39.254Z,5.18
2023-05-01T08:50:17.566Z,5.90
2023-05-01T08:52:44.676Z,7.77
2023-05-01T08:55:15.263Z,7.18
2023-05-01T08:57:46.047Z,7.55
2023-05-01T09:00:18.586Z,5.40
2023-05-01T09:02:48.556Z,6.57
2023-05-01T09:05:20.132Z,5.33
2023-05-01T09:07:48.473Z,7.43
2023-05-01T09:10:18.731Z,10.68
2023-05-01T09:12:49.333Z,6.13
2023-05-01T09:15:16.127Z,8.93
2023-05-01T09:17:44.343Z,7.10
2023-05-01T09:20:11.601Z,7.00
2023-05-01T09:22:40.850Z,6.28
2023-05-01T09:25:07.927Z,6.05
2023-05-01T09:27:35.558Z,6.68
2023-05-01T09:30:02.239Z,5.00
2023-05-01T09:32:29.253Z,5.88
2023-05-01T09:35:09.925Z,7.72
2023-05-01T09:37:36.889Z,5.32
2023-05-01T09:40:14.651Z,4.85
2023-05-01T09:42:50.511Z,5.83
2023-05-01T09:45:18.044Z,6.63
2023-05-01T09:47:48.664Z,11.90
2023-05-01T09:50:34.773Z,10.40
2023-05-01T09:53:02.316Z,6.35
2023-05-01T09:55:28.991Z,6.10
2023-05-01T09:57:55.696Z,6.18
2023-05-01T10:00:22.672Z,7.55
2023-05-01T10:02:50.753Z,7.07
2023-05-01T10:05:18.982Z,4.65
2023-05-01T10:08:14.662Z,6.17
2023-05-01T10:10:42.127Z,9.02
2023-05-01T10:13:16.612Z,5.22
2023-05-01T10:15:45.029Z,5.20
2023-05-01T10:18:11.832Z,4.55
2023-05-01T10:20:38.707Z,4.43
2023-05-01T10:23:05.612Z,6.75
2023-05-01T10:25:33.035Z,5.50
2023-05-01T10:28:03.055Z,5.05
2023-05-01T10:30:30.438Z,6.38
2023-05-01T10:32:59.142Z,4.67
2023-05-01T10:35:30.034Z,5.53
2023-05-01T10:38:07.739Z,3.97
2023-05-01T10:40:40.226Z,5.10
2023-05-01T10:43:17.476Z,8.32
2023-05-01T10:45:45.636Z,8.90
2023-05-01T10:48:12.876Z,4.45
2023-05-01T10:51:11.481Z,4.70
2023-05-01T10:53:40.604Z,6.55
2023-05-01T10:56:22.379Z,8.73
2023-05-01T10:58:58.072Z,6.50
2023-05-01T11:01:28.674Z,9.05
2023-05-01T11:03:56.091Z,7.70
2023-05-01T11:06:23.138Z,9.63
2023-05-01T11:08:50.047Z,4.15
2023-05-01T11:11:19.721Z,4.33
2023-05-01T11:14:02.701Z,3.70
2023-05-01T11:16:38.566Z,5.97
2023-05-01T11:19:32.012Z,4.25
2023-05-01T11:21:58.923Z,6.18
2023-05-01T11:24:36.994Z,8.23
2023-05-01T11:27:04.281Z,4.43
2023-05-01T11:29:32.075Z,6.63
2023-05-01T11:32:00.362Z,6.18
2023-05-01T11:34:27.208Z,7.68
2023-05-01T11:36:54.122Z,6.53
2023-05-01T11:39:20.954Z,4.85
2023-05-01T11:41:47.713Z,4.28
2023-05-01T11:44:17.217Z,8.50
2023-05-01T11:46:44.408Z,4.47
2023-05-01T11:49:11.672Z,5.03
2023-05-01T11:51:38.662Z,5.35
2023-05-01T11:54:07.913Z,6.70
2023-05-01T11:56:35.723Z,4.20
2023-05-01T11:59:16.743Z,6.55
2023-05-01T12:01:47.266Z,3.50
2023-05-01T12:04:24.413Z,6.78
2023-05-01T12:06:51.549Z,6.95
2023-05-01T12:09:20.655Z,4.32
2023-05-01T12:11:51.907Z,4.38
2023-05-01T12:14:20.169Z,4.83
2023-05-01T12:16:47.486Z,3.33
2023-05-01T12:19:15.762Z,3.92
2023-05-01T12:21:42.633Z,3.38
2023-05-01T12:24:14.248Z,5.15
2023-05-01T12:26:44.022Z,3.00
2023-05-01T12:29:11.292Z,4.10
2023-05-01T12:31:46.870Z,4.03
2023-05-01T12:34:15.817Z,7.63
2023-05-01T12:36:42.574Z,4.88
2023-05-01T12:39:11.301Z,4.13
2023-05-01T12:41:42.416Z,4.85
2023-05-01T12:44:31.222Z,4.50
2023-05-01T12:47:02.833Z,5.25
2023-05-01T12:49:33.224Z,6.97
2023-05-01T12:52:03.602Z,4.80
2023-05-01T12:54:32.912Z,4.22
2023-05-01T12:57:13.832Z,6.47
2023-05-01T12:59:42.441Z,5.70
2023-05-01T13:02:14.407Z,4.20
2023-05-01T13:04:43.072Z,5.17
2023-05-01T13:07:17.804Z,4.18
2023-05-01T13:10:10.855Z,4.05
2023-05-01T13:12:44.780Z,4.57
2023-05-01T13:15:24.155Z,4.38
2023-05-01T13:17:50.949Z,3.53
2023-05-01T13:20:25.992Z,5.35
2023-05-01T13:22:52.783Z,8.65
2023-05-01T13:25:20.233Z,5.57
2023-05-01T13:27:51.386Z,6.05
2023-05-01T13:30:31.783Z,4.47
2023-05-01T13:33:00.533Z,5.95
2023-05-01T13:35:27.697Z,4.68
2023-05-01T13:37:54.921Z,5.45
2023-05-01T13:40:24.960Z,4.50
2023-05-01T13:42:52.576Z,4.87
2023-05-01T13:45:25.914Z,4.53
2023-05-01T13:47:54.176Z,7.30
2023-05-01T13:50:21.191Z,3.67
2023-05-01T13:52:47.945Z,4.68
2023-05-01T13:55:14.839Z,6.40
2023-05-01T13:57:42.079Z,6.38
2023-05-01T14:00:13.162Z,5.32
2023-05-01T14:02:45.158Z,8.50
2023-05-01T14:05:11.951Z,4.93
2023-05-01T14:07:56.502Z,4.93
2023-05-01T14:10:27.760Z,5.20
2023-05-01T14:12:58.675Z,3.35
2023-05-01T14:15:25.787Z,4.57
2023-05-01T14:17:52.556Z,3.50
2023-05-01T14:20:19.458Z,6.33
2023-05-01T14:22:49.540Z,4.03
2023-05-01T14:25:25.334Z,5.18
2023-05-01T14:27:56.138Z,4.57
2023-05-01T14:30:30.689Z,5.90
2023-05-01T14:32:57.410Z,4.47
2023-05-01T14:35:24.873Z,5.03
2023-05-01T14:37:51.562Z,5.25
2023-05-01T14:40:21.433Z,5.05
2023-05-01T14:42:48.036Z,4.45
2023-05-01T14:45:15.980Z,2.70
2023-05-01T14:47:45.718Z,4.43
2023-05-01T14:50:18.323Z,4.75
2023-05-01T14:52:45.328Z,3.88
2023-05-01T14:55:12.121Z,7.00
2023-05-01T14:57:39.107Z,5.93
2023-05-01T15:00:06.220Z,4.35
2023-05-01T15:02:33.187Z,3.60
2023-05-01T15:05:00.650Z,4.63
2023-05-01T15:07:27.524Z,3.38
2023-05-01T15:09:54.194Z,2.60
2023-05-01T15:12:20.814Z,5.07
2023-05-01T15:14:47.463Z,4.22
2023-05-01T15:17:14.083Z,6.30
2023-05-01T15:19:40.718Z,5.72
2023-05-01T15:22:07.390Z,2.87
2023-05-01T15:24:34.056Z,5.68
2023-05-01T15:27:03.801Z,5.20
2023-05-01T15:29:31.814Z,2.85
2023-05-01T15:32:10.793Z,4.43
2023-05-01T15:34:38.937Z,3.87
2023-05-01T15:37:05.858Z,7.18
2023-05-01T15:39:33.792Z,4.97
2023-05-01T15:42:00.598Z,4.45
2023-05-01T15:44:27.273Z,3.50
2023-05-01T15:46:54.004Z,6.10
2023-05-01T15:49:20.680Z,8.95
2023-05-01T15:51:47.314Z,5.57
2023-05-01T15:54:14.108Z,3.63
2023-05-01T15:56:40.785Z,4.97
2023-05-01T15:59:07.847Z,4.47
2023-05-01T16:01:35.538Z,4.65
2023-05-01T16:04:03.701Z,8.25
2023-05-01T16:06:34.978Z,4.15
2023-05-01T16:09:02.421Z,3.45
2023-05-01T16:11:30.622Z,4.80
2023-05-01T16:14:00.845Z,2.75
2023-05-01T16:16:29.083Z,4.90
2023-05-01T16:18:59.603Z,4.00
2023-05-01T16:21:27.142Z,5.93
2023-05-01T16:23:57.404Z,5.13
2023-05-01T16:26:29.194Z,3.55
2023-05-01T16:29:00.189Z,2.30
2023-05-01T16:31:28.015Z,6.68
2023-05-01T16:33:55.027Z,5.97
2023-05-01T16:36:21.746Z,7.00
2023-05-01T16:38:48.370Z,4.53
2023-05-01T16:41:16.350Z,5.65
2023-05-01T16:43:44.378Z,5.13
2023-05-01T16:46:13.229Z,8.38
2023-05-01T16:48:42.018Z,6.30
2023-05-01T16:51:09.724Z,5.57
2023-05-01T16:53:36.458Z,4.80
2023-05-01T16:56:06.592Z,6.60
2023-05-01T16:58:36.488Z,7.18
2023-05-01T17:01:03.105Z,7.97
2023-05-01T17:03:29.730Z,3.85
2023-05-01T17:05:56.428Z,6.30
2023-05-01T17:08:23.187Z,6.35
2023-05-01T17:10:49.779Z,6.97
2023-05-01T17:13:16.376Z,7.60
2023-05-01T17:15:43.048Z,4.45
2023-05-01T17:18:09.786Z,4.63
2023-05-01T17:20:36.615Z,5.95
2023-05-01T17:23:03.290Z,6.65
2023-05-01T17:25:29.974Z,6.90
2023-05-01T17:27:56.678Z,8.02
2023-05-01T17:30:23.306Z,7.35
2023-05-01T17:32:50.059Z,9.35
2023-05-01T17:35:16.794Z,7.90
2023-05-01T17:37:43.503Z,9.97
2023-05-01T17:40:10.598Z,8.25
2023-05-01T17:42:37.254Z,6.70
2023-05-01T17:45:04.914Z,5.72
2023-05-01T17:47:31.598Z,11.75
2023-05-01T17:49:58.521Z,9.90
2023-05-01T17:52:25.253Z,6.70
2023-05-01T17:54:52.034Z,5.85
2023-05-01T17:57:18.650Z,6.32
2023-05-01T17:59:45.310Z,6.22
2023-05-01T18:02:12.165Z,6.97
2023-05-01T18:04:38.803Z,7.32
2023-05-01T18:07:05.600Z,6.82
2023-05-01T18:09:32.227Z,9.38
2023-05-01T18:11:58.851Z,6.32
2023-05-01T18:14:25.604Z,6.73
2023-05-01T18:16:52.275Z,6.05
2023-05-01T18:19:19.065Z,7.82
2023-05-01T18:21:45.742Z,8.27
2023-05-01T18:24:12.394Z,7.43
2023-05-01T18:26:39.112Z,9.53
2023-05-01T18:29:05.771Z,8.75
2023-05-01T18:31:32.583Z,12.93
2023-05-01T18:33:59.465Z,7.15
2023-05-01T18:36:26.094Z,7.13
2023-05-01T18:38:52.722Z,6.30
2023-05-01T18:41:19.344Z,11.38
2023-05-01T18:43:46.020Z,7.88
2023-05-01T18:46:12.796Z,10.65
2023-05-01T18:48:39.442Z,6.85
2023-05-01T18:51:08.980Z,8.63
2023-05-01T18:53:36.289Z,6.70
2023-05-01T18:56:03.030Z,7.55
2023-05-01T18:58:29.792Z,6.00
2023-05-01T19:00:56.394Z,5.88
2023-05-01T19:03:23.098Z,6.43
2023-05-01T19:05:49.797Z,8.23
2023-05-01T19:08:16.560Z,8.20
2023-05-01T19:10:43.272Z,7.95
2023-05-01T19:13:09.957Z,10.50
2023-05-01T19:15:36.561Z,10.20
2023-05-01T19:18:03.350Z,11.20
2023-05-01T19:20:30.022Z,10.77
2023-05-01T19:22:56.690Z,7.43
2023-05-01T19:25:24.163Z,7.90
2023-05-01T19:27:50.860Z,5.60
2023-05-01T19:30:17.520Z,6.47
2023-05-01T19:32:45.581Z,6.63
2023-05-01T19:35:12.376Z,8.32
2023-05-01T19:37:39.151Z,8.38
2023-05-01T19:40:06.736Z,6.93
2023-05-01T19:42:33.458Z,7.78
2023-05-01T19:45:00.172Z,7.57
2023-05-01T19:47:26.952Z,9.20
2023-05-01T19:49:53.690Z,9.35
2023-05-01T19:52:20.430Z,8.63
2023-05-01T19:54:47.231Z,11.38
2023-05-01T19:57:14.041Z,9.13
2023-05-01T19:59:40.677Z,9.30
2023-05-01T20:02:07.419Z,10.98
2023-05-01T20:07:00.803Z,11.90
2023-05-01T20:09:27.468Z,8.88
2023-05-01T20:11:54.218Z,13.38
2023-05-01T20:14:20.909Z,10.25
2023-05-01T20:16:50.095Z,10.00
2023-05-01T20:19:16.787Z,11.10
2023-05-01T20:21:43.547Z,9.07
2023-05-01T20:24:10.172Z,11.45
2023-05-01T20:26:37.024Z,8.95
2023-05-01T20:29:03.668Z,9.73
2023-05-01T20:31:30.476Z,11.05
2023-05-01T20:33:57.107Z,14.60
2023-05-01T20:36:25.369Z,14.27
2023-05-01T20:38:52.194Z,11.57
2023-05-01T20:41:18.905Z,10.23
2023-05-01T20:43:45.559Z,10.02
2023-05-01T20:46:12.253Z,9.35
2023-05-01T20:48:38.978Z,7.78
2023-05-01T20:51:05.611Z,10.68
2023-05-01T20:53:32.317Z,8.77
2023-05-01T20:55:59.092Z,7.63
2023-05-01T20:58:25.785Z,9.95
2023-05-01T21:00:55.612Z,9.43
2023-05-01T21:03:22.518Z,10.35
2023-05-01T21:05:49.325Z,11.27
2023-05-01T21:08:16.058Z,17.67
2023-05-01T21:10:42.747Z,20.13
2023-05-01T21:13:09.417Z,22.55
2023-05-01T21:15:36.037Z,27.52
2023-05-01T21:18:02.785Z,20.63
2023-05-01T21:20:32.730Z,15.27
2023-05-01T21:23:00.483Z,15.98
2023-05-01T21:25:28.840Z,13.55
2023-05-01T21:27:56.411Z,8.73
2023-05-01T21:30:33.711Z,8.90
2023-05-01T21:33:21.311Z,11.40
2023-05-01T21:35:48.458Z,9.38
2023-05-01T21:38:16.161Z,10.98
2023-05-01T21:40:43.171Z,9.07
2023-05-01T21:43:09.974Z,12.07
2023-05-01T21:45:37.027Z,9.38
2023-05-01T21:48:03.823Z,10.32
2023-05-01T21:50:34.965Z,12.45
2023-05-01T21:53:02.213Z,11.05
2023-05-01T21:55:28.885Z,8.70
2023-05-01T21:57:55.550Z,9.43
2023-05-01T22:00:22.309Z,9.40
2023-05-01T22:02:50.337Z,12.38
2023-05-01T22:05:21.293Z,9.90
2023-05-01T22:07:48.876Z,12.40
2023-05-01T22:10:17.593Z,11.77
2023-05-01T22:12:45.156Z,12.02
2023-05-01T22:15:13.396Z,10.05
2023-05-01T22:17:40.834Z,10.57
2023-05-01T22:20:08.424Z,11.33
2023-05-01T22:22:36.050Z,15.15
2023-05-01T22:25:03.265Z,11.63
2023-05-01T22:27:30.193Z,15.95
2023-05-01T22:29:57.248Z,12.02
2023-05-01T22:32:24.357Z,10.37
2023-05-01T22:34:51.034Z,11.68
2023-05-01T22:37:17.885Z,13.93
2023-05-01T22:39:44.539Z,11.10
2023-05-01T22:42:11.198Z,12.63
2023-05-01T22:44:37.906Z,11.43
2023-05-01T22:47:04.563Z,13.25
2023-05-01T22:49:31.181Z,12.63
2023-05-01T22:51:58.574Z,12.73
2023-05-01T22:54:25.318Z,14.35
2023-05-01T22:56:52.110Z,12.00
2023-05-01T22:59:19.642Z,12.18
2023-05-01T23:01:46.455Z,12.38
2023-05-01T23:04:13.916Z,11.90
2023-05-01T23:06:41.086Z,12.63
2023-05-01T23:09:07.769Z,14.57
2023-05-01T23:11:34.851Z,10.35
2023-05-01T23:14:01.877Z,12.05
2023-05-01T23:16:36.355Z,11.45
2023-05-01T23:19:03.686Z,12.25
2023-05-01T23:21:30.475Z,16.43
2023-05-01T23:23:57.281Z,15.18
2023-05-01T23:26:25.950Z,13.60
2023-05-01T23:28:53.445Z,11.05
2023-05-01T23:31:25.509Z,12.63
2023-05-01T23:33:52.786Z,11.90
2023-05-01T23:36:20.425Z,9.35
2023-05-01T23:38:47.376Z,12.80
2023-05-01T23:41:14.919Z,10.80
2023-05-01T23:43:41.918Z,11.40
2023-05-01T23:46:08.765Z,11.60
2023-05-01T23:48:36.261Z,11.43
2023-05-01T23:51:03.522Z,10.85
2023-05-01T23:53:30.528Z,10.38
2023-05-01T23:55:57.314Z,11.55
2023-05-01T23:58:24.282Z,12.87
